sensor_id;sensor_type;location;lat;lon;timestamp;temperature;humidity
5621;DHT22;2832;50.864;12.186;2022-09-03T00:18:07;19.90;91.30
5621;DHT22;2832;50.864;12.186;2022-09-03T00:20:39;19.90;91.20
5621;DHT22;2832;50.864;12.186;2022-09-03T00:23:15;19.90;91.20
5621;DHT22;2832;50.864;12.186;2022-09-03T00:25:51;19.90;91.20
5621;DHT22;2832;50.864;12.186;2022-09-03T00:28:25;19.90;91.20
5621;DHT22;2832;50.864;12.186;2022-09-03T00:31:04;19.90;91.30
5621;DHT22;2832;50.864;12.186;2022-09-03T00:33:37;19.80;91.30
5621;DHT22;2832;50.864;12.186;2022-09-03T00:36:12;19.80;91.30
5621;DHT22;2832;50.864;12.186;2022-09-03T00:38:41;19.80;91.30
5621;DHT22;2832;50.864;12.186;2022-09-03T00:41:21;19.80;91.30
5621;DHT22;2832;50.864;12.186;2022-09-03T00:44:01;19.70;91.30
5621;DHT22;2832;50.864;12.186;2022-09-03T00:46:40;19.70;91.40
5621;DHT22;2832;50.864;12.186;2022-09-03T00:49:24;19.70;91.50
5621;DHT22;2832;50.864;12.186;2022-09-03T00:52:03;19.70;91.50
5621;DHT22;2832;50.864;12.186;2022-09-03T00:54:42;19.70;91.50
5621;DHT22;2832;50.864;12.186;2022-09-03T00:57:22;19.70;91.50
5621;DHT22;2832;50.864;12.186;2022-09-03T01:00:00;19.70;91.60
5621;DHT22;2832;50.864;12.186;2022-09-03T01:02:38;19.60;91.50
5621;DHT22;2832;50.864;12.186;2022-09-03T01:05:26;19.60;91.50
5621;DHT22;2832;50.864;12.186;2022-09-03T01:08:10;19.60;91.50
5621;DHT22;2832;50.864;12.186;2022-09-03T01:10:45;19.50;91.50
5621;DHT22;2832;50.864;12.186;2022-09-03T01:13:20;19.50;91.50
5621;DHT22;2832;50.864;12.186;2022-09-03T01:15:55;19.50;91.50
5621;DHT22;2832;50.864;12.186;2022-09-03T02:17:20;19.10;91.60
5621;DHT22;2832;50.864;12.186;2022-09-03T02:19:49;19.00;91.50
5621;DHT22;2832;50.864;12.186;2022-09-03T02:22:18;19.00;91.40
5621;DHT22;2832;50.864;12.186;2022-09-03T02:24:46;19.00;91.40
5621;DHT22;2832;50.864;12.186;2022-09-03T02:27:14;19.00;91.50
5621;DHT22;2832;50.864;12.186;2022-09-03T02:29:42;18.90;91.40
5621;DHT22;2832;50.864;12.186;2022-09-03T02:32:12;18.90;91.40
5621;DHT22;2832;50.864;12.186;2022-09-03T02:34:42;18.90;91.40
5621;DHT22;2832;50.864;12.186;2022-09-03T02:37:14;18.90;91.40
5621;DHT22;2832;50.864;12.186;2022-09-03T02:39:43;18.90;91.40
5621;DHT22;2832;50.864;12.186;2022-09-03T02:42:12;18.90;91.40
5621;DHT22;2832;50.864;12.186;2022-09-03T02:44:45;18.80;91.30
5621;DHT22;2832;50.864;12.186;2022-09-03T02:47:14;18.90;91.40
5621;DHT22;2832;50.864;12.186;2022-09-03T02:49:47;18.80;91.30
5621;DHT22;2832;50.864;12.186;2022-09-03T02:52:15;18.80;91.30
5621;DHT22;2832;50.864;12.186;2022-09-03T02:54:44;18.80;91.40
5621;DHT22;2832;50.864;12.186;2022-09-03T02:57:13;18.80;91.40
5621;DHT22;2832;50.864;12.186;2022-09-03T02:59:42;18.80;91.40
5621;DHT22;2832;50.864;12.186;2022-09-03T03:02:11;18.80;91.50
5621;DHT22;2832;50.864;12.186;2022-09-03T03:04:39;18.70;91.50
5621;DHT22;2832;50.864;12.186;2022-09-03T03:07:09;18.80;91.50
5621;DHT22;2832;50.864;12.186;2022-09-03T03:09:37;18.70;91.60
5621;DHT22;2832;50.864;12.186;2022-09-03T03:12:07;18.70;91.60
5621;DHT22;2832;50.864;12.186;2022-09-03T03:14:35;18.70;91.60
5621;DHT22;2832;50.864;12.186;2022-09-03T03:17:03;18.70;91.60
5621;DHT22;2832;50.864;12.186;2022-09-03T04:18:34;18.20;91.80
5621;DHT22;2832;50.864;12.186;2022-09-03T04:21:06;18.20;91.80
5621;DHT22;2832;50.864;12.186;2022-09-03T04:23:36;18.30;91.80
5621;DHT22;2832;50.864;12.186;2022-09-03T04:26:07;18.20;91.80
5621;DHT22;2832;50.864;12.186;2022-09-03T04:28:36;18.20;91.80
5621;DHT22;2832;50.864;12.186;2022-09-03T04:31:07;18.20;91.80
5621;DHT22;2832;50.864;12.186;2022-09-03T04:33:36;18.20;91.80
5621;DHT22;2832;50.864;12.186;2022-09-03T04:36:05;18.10;91.70
5621;DHT22;2832;50.864;12.186;2022-09-03T04:38:34;18.10;91.60
5621;DHT22;2832;50.864;12.186;2022-09-03T04:41:02;18.10;91.60
5621;DHT22;2832;50.864;12.186;2022-09-03T04:43:31;18.10;91.50
5621;DHT22;2832;50.864;12.186;2022-09-03T04:46:00;18.10;91.60
5621;DHT22;2832;50.864;12.186;2022-09-03T04:48:29;18.10;91.50
5621;DHT22;2832;50.864;12.186;2022-09-03T04:51:05;18.10;91.60
5621;DHT22;2832;50.864;12.186;2022-09-03T04:53:34;18.10;91.60
5621;DHT22;2832;50.864;12.186;2022-09-03T04:56:10;18.10;91.60
5621;DHT22;2832;50.864;12.186;2022-09-03T04:58:39;18.00;91.60
5621;DHT22;2832;50.864;12.186;2022-09-03T05:01:12;18.00;91.60
5621;DHT22;2832;50.864;12.186;2022-09-03T05:03:41;18.00;91.60
5621;DHT22;2832;50.864;12.186;2022-09-03T05:06:13;18.00;91.60
5621;DHT22;2832;50.864;12.186;2022-09-03T05:08:43;17.90;91.60
5621;DHT22;2832;50.864;12.186;2022-09-03T05:11:15;17.90;91.70
5621;DHT22;2832;50.864;12.186;2022-09-03T05:13:46;17.90;91.70
5621;DHT22;2832;50.864;12.186;2022-09-03T05:16:28;17.90;91.80
5621;DHT22;2832;50.864;12.186;2022-09-03T05:18:59;17.90;91.80
5621;DHT22;2832;50.864;12.186;2022-09-03T05:21:29;17.90;91.80
5621;DHT22;2832;50.864;12.186;2022-09-03T05:23:59;17.90;91.80
5621;DHT22;2832;50.864;12.186;2022-09-03T05:26:29;17.90;91.80
5621;DHT22;2832;50.864;12.186;2022-09-03T05:28:58;17.80;91.80
5621;DHT22;2832;50.864;12.186;2022-09-03T05:31:28;17.80;91.90
5621;DHT22;2832;50.864;12.186;2022-09-03T05:33:58;17.80;91.90
5621;DHT22;2832;50.864;12.186;2022-09-03T05:36:29;17.80;91.90
5621;DHT22;2832;50.864;12.186;2022-09-03T05:38:58;17.80;91.90
5621;DHT22;2832;50.864;12.186;2022-09-03T05:41:27;17.80;92.00
5621;DHT22;2832;50.864;12.186;2022-09-03T05:43:55;17.80;92.00
5621;DHT22;2832;50.864;12.186;2022-09-03T05:46:26;17.80;92.10
5621;DHT22;2832;50.864;12.186;2022-09-03T05:48:57;17.80;92.10
5621;DHT22;2832;50.864;12.186;2022-09-03T05:51:25;17.70;92.10
5621;DHT22;2832;50.864;12.186;2022-09-03T05:53:55;17.80;92.20
5621;DHT22;2832;50.864;12.186;2022-09-03T05:56:25;17.80;92.20
5621;DHT22;2832;50.864;12.186;2022-09-03T05:58:56;17.80;92.20
5621;DHT22;2832;50.864;12.186;2022-09-03T06:01:31;17.80;92.30
5621;DHT22;2832;50.864;12.186;2022-09-03T06:04:00;17.80;92.40
5621;DHT22;2832;50.864;12.186;2022-09-03T06:06:30;17.80;92.40
5621;DHT22;2832;50.864;12.186;2022-09-03T06:09:02;17.80;92.50
5621;DHT22;2832;50.864;12.186;2022-09-03T06:11:36;17.70;92.50
5621;DHT22;2832;50.864;12.186;2022-09-03T06:14:09;17.70;92.50
5621;DHT22;2832;50.864;12.186;2022-09-03T06:16:38;17.70;92.60
5621;DHT22;2832;50.864;12.186;2022-09-03T06:19:08;17.70;92.60
5621;DHT22;2832;50.864;12.186;2022-09-03T06:21:36;17.70;92.70
5621;DHT22;2832;50.864;12.186;2022-09-03T06:24:11;17.70;92.70
5621;DHT22;2832;50.864;12.186;2022-09-03T06:26:41;17.70;92.80
5621;DHT22;2832;50.864;12.186;2022-09-03T06:29:08;17.70;93.00
5621;DHT22;2832;50.864;12.186;2022-09-03T06:31:36;17.80;93.10
5621;DHT22;2832;50.864;12.186;2022-09-03T06:34:05;17.80;93.10
5621;DHT22;2832;50.864;12.186;2022-09-03T06:36:34;17.80;93.20
5621;DHT22;2832;50.864;12.186;2022-09-03T06:39:02;17.80;93.30
5621;DHT22;2832;50.864;12.186;2022-09-03T06:41:32;17.80;93.40
5621;DHT22;2832;50.864;12.186;2022-09-03T06:44:02;17.80;93.40
5621;DHT22;2832;50.864;12.186;2022-09-03T06:46:38;17.80;93.40
5621;DHT22;2832;50.864;12.186;2022-09-03T06:49:07;17.80;93.40
5621;DHT22;2832;50.864;12.186;2022-09-03T06:51:36;17.80;93.30
5621;DHT22;2832;50.864;12.186;2022-09-03T06:54:10;17.90;93.30
5621;DHT22;2832;50.864;12.186;2022-09-03T06:57:02;17.90;93.40
5621;DHT22;2832;50.864;12.186;2022-09-03T06:59:31;17.80;93.50
5621;DHT22;2832;50.864;12.186;2022-09-03T07:01:59;17.80;93.90
5621;DHT22;2832;50.864;12.186;2022-09-03T07:04:29;17.80;93.70
5621;DHT22;2832;50.864;12.186;2022-09-03T07:06:57;17.80;93.70
5621;DHT22;2832;50.864;12.186;2022-09-03T07:09:26;17.90;93.80
5621;DHT22;2832;50.864;12.186;2022-09-03T07:11:54;17.90;93.90
5621;DHT22;2832;50.864;12.186;2022-09-03T07:14:24;17.90;94.00
5621;DHT22;2832;50.864;12.186;2022-09-03T07:16:52;17.90;94.10
5621;DHT22;2832;50.864;12.186;2022-09-03T09:20:34;19.40;87.30
5621;DHT22;2832;50.864;12.186;2022-09-03T09:23:14;19.30;86.90
5621;DHT22;2832;50.864;12.186;2022-09-03T09:25:50;19.40;86.40
5621;DHT22;2832;50.864;12.186;2022-09-03T09:28:31;19.30;87.50
5621;DHT22;2832;50.864;12.186;2022-09-03T09:31:03;19.30;88.00
5621;DHT22;2832;50.864;12.186;2022-09-03T09:33:31;19.40;86.90
5621;DHT22;2832;50.864;12.186;2022-09-03T09:36:02;19.60;85.40
5621;DHT22;2832;50.864;12.186;2022-09-03T09:38:32;19.50;85.70
5621;DHT22;2832;50.864;12.186;2022-09-03T09:41:08;19.40;86.40
5621;DHT22;2832;50.864;12.186;2022-09-03T09:43:38;19.50;82.70
5621;DHT22;2832;50.864;12.186;2022-09-03T09:46:10;19.40;83.00
5621;DHT22;2832;50.864;12.186;2022-09-03T09:48:47;19.40;84.40
5621;DHT22;2832;50.864;12.186;2022-09-03T09:51:23;19.40;84.20
5621;DHT22;2832;50.864;12.186;2022-09-03T09:54:01;19.50;85.30
5621;DHT22;2832;50.864;12.186;2022-09-03T09:56:29;19.60;85.30
5621;DHT22;2832;50.864;12.186;2022-09-03T09:59:03;19.50;85.20
5621;DHT22;2832;50.864;12.186;2022-09-03T10:01:30;19.60;84.60
5621;DHT22;2832;50.864;12.186;2022-09-03T10:04:00;19.50;85.70
5621;DHT22;2832;50.864;12.186;2022-09-03T10:06:39;19.60;85.20
5621;DHT22;2832;50.864;12.186;2022-09-03T10:09:27;19.70;83.90
5621;DHT22;2832;50.864;12.186;2022-09-03T10:12:07;19.70;85.10
5621;DHT22;2832;50.864;12.186;2022-09-03T10:14:43;19.60;84.30
5621;DHT22;2832;50.864;12.186;2022-09-03T10:17:23;19.70;84.50
5621;DHT22;2832;50.864;12.186;2022-09-03T10:20:14;19.70;84.60
5621;DHT22;2832;50.864;12.186;2022-09-03T10:23:06;19.80;85.00
5621;DHT22;2832;50.864;12.186;2022-09-03T10:25:43;19.80;85.30
5621;DHT22;2832;50.864;12.186;2022-09-03T10:28:18;19.80;84.40
5621;DHT22;2832;50.864;12.186;2022-09-03T10:31:03;19.80;84.70
5621;DHT22;2832;50.864;12.186;2022-09-03T10:33:41;19.80;85.00
5621;DHT22;2832;50.864;12.186;2022-09-03T10:36:17;19.80;84.80
5621;DHT22;2832;50.864;12.186;2022-09-03T10:39:05;19.70;84.90
5621;DHT22;2832;50.864;12.186;2022-09-03T10:41:56;20.00;85.20
5621;DHT22;2832;50.864;12.186;2022-09-03T10:44:48;19.90;83.10
5621;DHT22;2832;50.864;12.186;2022-09-03T10:47:48;19.90;83.40
5621;DHT22;2832;50.864;12.186;2022-09-03T10:50:27;19.80;83.50
5621;DHT22;2832;50.864;12.186;2022-09-03T10:53:20;19.80;83.40
5621;DHT22;2832;50.864;12.186;2022-09-03T10:56:29;19.80;84.00
5621;DHT22;2832;50.864;12.186;2022-09-03T10:59:36;19.80;83.80
5621;DHT22;2832;50.864;12.186;2022-09-03T11:02:23;20.00;84.20
5621;DHT22;2832;50.864;12.186;2022-09-03T11:04:59;20.10;84.10
5621;DHT22;2832;50.864;12.186;2022-09-03T11:07:39;20.10;84.20
5621;DHT22;2832;50.864;12.186;2022-09-03T11:10:16;20.10;84.00
5621;DHT22;2832;50.864;12.186;2022-09-03T11:12:49;20.20;83.80
5621;DHT22;2832;50.864;12.186;2022-09-03T11:15:26;20.20;83.10
5621;DHT22;2832;50.864;12.186;2022-09-03T11:18:02;20.20;82.60
5621;DHT22;2832;50.864;12.186;2022-09-03T11:20:31;20.20;82.60
5621;DHT22;2832;50.864;12.186;2022-09-03T14:23:48;21.80;78.80
5621;DHT22;2832;50.864;12.186;2022-09-03T14:26:27;21.90;79.00
5621;DHT22;2832;50.864;12.186;2022-09-03T14:29:03;21.90;78.60
5621;DHT22;2832;50.864;12.186;2022-09-03T14:31:48;22.10;77.70
5621;DHT22;2832;50.864;12.186;2022-09-03T14:34:25;22.00;77.10
5621;DHT22;2832;50.864;12.186;2022-09-03T14:37:05;22.00;77.60
5621;DHT22;2832;50.864;12.186;2022-09-03T14:39:50;21.90;77.40
5621;DHT22;2832;50.864;12.186;2022-09-03T14:42:50;21.90;77.90
5621;DHT22;2832;50.864;12.186;2022-09-03T14:51:25;22.10;78.60
5621;DHT22;2832;50.864;12.186;2022-09-03T14:54:23;22.10;78.30
5621;DHT22;2832;50.864;12.186;2022-09-03T14:57:09;22.10;77.50
5621;DHT22;2832;50.864;12.186;2022-09-03T15:00:05;22.10;77.60
5621;DHT22;2832;50.864;12.186;2022-09-03T15:03:15;22.20;77.10
5621;DHT22;2832;50.864;12.186;2022-09-03T15:06:10;22.10;77.40
5621;DHT22;2832;50.864;12.186;2022-09-03T15:11:47;22.10;78.40
5621;DHT22;2832;50.864;12.186;2022-09-03T15:14:26;22.10;77.20
5621;DHT22;2832;50.864;12.186;2022-09-03T15:17:16;22.10;77.20
5621;DHT22;2832;50.864;12.186;2022-09-03T15:20:05;22.10;77.50
5621;DHT22;2832;50.864;12.186;2022-09-03T16:22:58;22.20;79.90
5621;DHT22;2832;50.864;12.186;2022-09-03T16:25:41;22.10;79.80
5621;DHT22;2832;50.864;12.186;2022-09-03T16:28:15;22.20;80.10
5621;DHT22;2832;50.864;12.186;2022-09-03T16:30:56;22.10;80.10
5621;DHT22;2832;50.864;12.186;2022-09-03T16:33:37;22.20;80.40
5621;DHT22;2832;50.864;12.186;2022-09-03T16:36:20;22.20;80.30
5621;DHT22;2832;50.864;12.186;2022-09-03T16:39:11;22.20;80.50
5621;DHT22;2832;50.864;12.186;2022-09-03T16:41:46;22.30;80.60
5621;DHT22;2832;50.864;12.186;2022-09-03T16:44:23;22.30;80.80
5621;DHT22;2832;50.864;12.186;2022-09-03T16:47:02;22.30;80.90
5621;DHT22;2832;50.864;12.186;2022-09-03T16:49:44;22.30;81.00
5621;DHT22;2832;50.864;12.186;2022-09-03T16:52:24;22.30;81.20
5621;DHT22;2832;50.864;12.186;2022-09-03T16:55:05;22.30;81.00
5621;DHT22;2832;50.864;12.186;2022-09-03T16:57:48;22.30;81.00
5621;DHT22;2832;50.864;12.186;2022-09-03T17:00:20;22.30;80.90
5621;DHT22;2832;50.864;12.186;2022-09-03T17:09:21;22.20;81.70
5621;DHT22;2832;50.864;12.186;2022-09-03T17:11:59;22.20;81.70
5621;DHT22;2832;50.864;12.186;2022-09-03T17:14:55;22.20;82.00
5621;DHT22;2832;50.864;12.186;2022-09-03T17:17:44;22.20;82.20
5621;DHT22;2832;50.864;12.186;2022-09-03T17:20:28;22.10;82.10
5621;DHT22;2832;50.864;12.186;2022-09-03T19:23:28;22.40;85.20
5621;DHT22;2832;50.864;12.186;2022-09-03T19:26:19;22.40;85.20
5621;DHT22;2832;50.864;12.186;2022-09-03T19:29:24;22.40;85.20
5621;DHT22;2832;50.864;12.186;2022-09-03T19:32:16;22.40;85.20
5621;DHT22;2832;50.864;12.186;2022-09-03T19:35:09;22.30;85.30
5621;DHT22;2832;50.864;12.186;2022-09-03T19:38:05;22.40;85.70
5621;DHT22;2832;50.864;12.186;2022-09-03T19:41:04;22.40;85.60
5621;DHT22;2832;50.864;12.186;2022-09-03T19:44:02;22.40;85.70
5621;DHT22;2832;50.864;12.186;2022-09-03T19:46:50;22.50;86.00
5621;DHT22;2832;50.864;12.186;2022-09-03T19:49:50;22.50;86.70
5621;DHT22;2832;50.864;12.186;2022-09-03T19:52:46;22.50;87.90
5621;DHT22;2832;50.864;12.186;2022-09-03T19:55:35;22.50;89.20
5621;DHT22;2832;50.864;12.186;2022-09-03T19:58:25;22.50;89.80
5621;DHT22;2832;50.864;12.186;2022-09-03T20:01:12;22.50;90.00
5621;DHT22;2832;50.864;12.186;2022-09-03T20:04:03;22.50;90.10
5621;DHT22;2832;50.864;12.186;2022-09-03T20:06:50;22.50;90.10
5621;DHT22;2832;50.864;12.186;2022-09-03T20:09:39;22.50;90.10
5621;DHT22;2832;50.864;12.186;2022-09-03T20:12:28;22.50;90.20
5621;DHT22;2832;50.864;12.186;2022-09-03T20:15:02;22.50;90.20
5621;DHT22;2832;50.864;12.186;2022-09-03T20:17:36;22.50;90.20
5621;DHT22;2832;50.864;12.186;2022-09-03T20:20:18;22.50;90.20
5621;DHT22;2832;50.864;12.186;2022-09-03T20:22:54;22.50;90.10
5621;DHT22;2832;50.864;12.186;2022-09-03T21:24:26;22.30;92.90
5621;DHT22;2832;50.864;12.186;2022-09-03T21:27:09;22.30;93.10
5621;DHT22;2832;50.864;12.186;2022-09-03T21:29:43;22.30;93.20
5621;DHT22;2832;50.864;12.186;2022-09-03T21:32:15;22.20;93.30
5621;DHT22;2832;50.864;12.186;2022-09-03T21:35:00;22.20;93.30
5621;DHT22;2832;50.864;12.186;2022-09-03T21:37:35;22.20;93.40
5621;DHT22;2832;50.864;12.186;2022-09-03T21:40:08;22.20;93.60
5621;DHT22;2832;50.864;12.186;2022-09-03T21:42:45;22.20;93.70
5621;DHT22;2832;50.864;12.186;2022-09-03T21:45:27;22.20;94.10
5621;DHT22;2832;50.864;12.186;2022-09-03T21:48:07;22.20;94.10
5621;DHT22;2832;50.864;12.186;2022-09-03T21:50:52;22.20;93.90
5621;DHT22;2832;50.864;12.186;2022-09-03T21:53:26;22.20;94.00
5621;DHT22;2832;50.864;12.186;2022-09-03T21:56:20;22.20;94.20
5621;DHT22;2832;50.864;12.186;2022-09-03T21:59:04;22.20;94.30
5621;DHT22;2832;50.864;12.186;2022-09-03T22:01:46;22.10;94.40
5621;DHT22;2832;50.864;12.186;2022-09-03T22:04:41;22.20;94.50
5621;DHT22;2832;50.864;12.186;2022-09-03T22:07:18;22.10;94.50
5621;DHT22;2832;50.864;12.186;2022-09-03T22:09:57;22.10;94.60
5621;DHT22;2832;50.864;12.186;2022-09-03T22:12:36;22.10;94.80
5621;DHT22;2832;50.864;12.186;2022-09-03T22:15:12;22.20;94.90
5621;DHT22;2832;50.864;12.186;2022-09-03T22:17:46;22.10;95.00
5621;DHT22;2832;50.864;12.186;2022-09-03T22:20:26;22.10;95.00
5621;DHT22;2832;50.864;12.186;2022-09-03T22:23:06;22.10;95.00
5621;DHT22;2832;50.864;12.186;2022-09-03T22:25:44;22.10;95.00
5621;DHT22;2832;50.864;12.186;2022-09-03T22:28:20;22.10;95.00
5621;DHT22;2832;50.864;12.186;2022-09-03T22:30:59;22.10;95.00
5621;DHT22;2832;50.864;12.186;2022-09-03T22:33:38;22.10;95.00
5621;DHT22;2832;50.864;12.186;2022-09-03T22:36:14;22.10;95.00
5621;DHT22;2832;50.864;12.186;2022-09-03T22:39:00;22.10;95.10
5621;DHT22;2832;50.864;12.186;2022-09-03T22:41:50;22.10;95.10
5621;DHT22;2832;50.864;12.186;2022-09-03T22:44:33;22.10;95.10
5621;DHT22;2832;50.864;12.186;2022-09-03T22:47:11;22.00;95.10
5621;DHT22;2832;50.864;12.186;2022-09-03T22:49:47;22.10;95.20
5621;DHT22;2832;50.864;12.186;2022-09-03T22:52:27;22.10;95.30
5621;DHT22;2832;50.864;12.186;2022-09-03T22:55:09;22.00;95.30
5621;DHT22;2832;50.864;12.186;2022-09-03T22:57:45;22.00;95.50
5621;DHT22;2832;50.864;12.186;2022-09-03T23:00:19;22.10;95.60
5621;DHT22;2832;50.864;12.186;2022-09-03T23:02:57;22.00;95.60
5621;DHT22;2832;50.864;12.186;2022-09-03T23:05:40;22.00;95.70
5621;DHT22;2832;50.864;12.186;2022-09-03T23:08:18;22.10;95.80
5621;DHT22;2832;50.864;12.186;2022-09-03T23:11:00;22.00;95.80
5621;DHT22;2832;50.864;12.186;2022-09-03T23:13:39;22.00;95.90
5621;DHT22;2832;50.864;12.186;2022-09-03T23:16:27;22.00;95.90
5621;DHT22;2832;50.864;12.186;2022-09-03T23:19:05;22.00;96.00
5621;DHT22;2832;50.864;12.186;2022-09-03T23:21:51;22.00;95.90
5621;DHT22;2832;50.864;12.186;2022-09-03T23:24:29;22.00;96.00
